Time;durP1;ratioP1;P1;durP2;ratioP2;P2;SDS_P1;SDS_P2;PMS_P1;PMS_P2;Temp;Humidity;BMP_temperature;BMP_pressure;BME280_temperature;BME280_humidity;BME280_pressure;Samples;Min_cycle;Max_cycle;Signal;HPM_P1;HPM_P2
2022/04/09 00:01:25;;;;;;;1.80;1.40;;;;;;;;;;4942818;29;20027;-88
2022/04/09 00:03:50;;;;;;;1.85;1.27;;;;;;;;;;4946481;29;20502;-85
2022/04/09 00:06:16;;;;;;;3.03;1.42;;;;;;;;;;4943901;28;20073;-86
2022/04/09 00:08:41;;;;;;;4.45;1.23;;;;;;;;;;4946991;28;20114;-85
2022/04/09 00:11:08;;;;;;;2.00;0.95;;;;;;;;;;4954009;28;20062;-87
2022/04/09 00:13:34;;;;;;;2.00;1.30;;;;;;;;;;4945961;28;20468;-85
2022/04/09 00:15:59;;;;;;;1.30;1.20;;;;;;;;;;4952001;29;20090;-85
2022/04/09 00:18:25;;;;;;;2.38;1.10;;;;;;;;;;4945817;29;20640;-83
2022/04/09 00:20:50;;;;;;;2.67;0.90;;;;;;;;;;4949666;29;20480;-85
2022/04/09 00:23:18;;;;;;;1.80;1.00;;;;;;;;;;4966568;28;20089;-88
2022/04/09 00:25:44;;;;;;;1.33;1.00;;;;;;;;;;4956676;28;20031;-85
2022/04/09 00:28:10;;;;;;;2.88;1.10;;;;;;;;;;4967278;28;20098;-86
2022/04/09 00:30:35;;;;;;;2.92;1.10;;;;;;;;;;4950875;29;20031;-86
2022/04/09 00:33:01;;;;;;;1.10;0.88;;;;;;;;;;4951456;28;20023;-86
2022/04/09 00:35:26;;;;;;;2.97;1.92;;;;;;;;;;4938731;29;20027;-86
2022/04/09 00:37:52;;;;;;;3.15;1.10;;;;;;;;;;4942390;29;20475;-84
2022/04/09 00:40:18;;;;;;;3.30;1.20;;;;;;;;;;4953388;28;20020;-84
2022/04/09 00:42:44;;;;;;;3.00;1.30;;;;;;;;;;4956249;28;20039;-86
2022/04/09 00:45:11;;;;;;;2.15;1.17;;;;;;;;;;4937225;29;20031;-85
2022/04/09 00:47:36;;;;;;;2.22;1.17;;;;;;;;;;4948462;29;20786;-84
2022/04/09 00:50:07;;;;;;;3.65;0.93;;;;;;;;;;4942234;29;20027;-89
2022/04/09 00:52:39;;;;;;;1.55;1.05;;;;;;;;;;4952568;28;20035;-83
2022/04/09 00:55:05;;;;;;;2.45;1.30;;;;;;;;;;4950597;29;20027;-84
2022/04/09 00:57:34;;;;;;;2.92;0.93;;;;;;;;;;4945101;29;20034;-83
2022/04/09 01:00:09;;;;;;;1.40;1.00;;;;;;;;;;4946343;29;20086;-84
2022/04/09 01:02:39;;;;;;;3.55;1.30;;;;;;;;;;4951407;29;20034;-83
2022/04/09 01:05:06;;;;;;;5.03;1.20;;;;;;;;;;4947936;28;20027;-85
2022/04/09 01:07:33;;;;;;;2.38;1.10;;;;;;;;;;4951804;28;20122;-84
2022/04/09 01:09:58;;;;;;;2.83;1.10;;;;;;;;;;4946126;29;20035;-85
2022/04/09 01:12:24;;;;;;;2.55;1.20;;;;;;;;;;4940904;29;20036;-85
2022/04/09 01:14:50;;;;;;;2.38;1.33;;;;;;;;;;4954950;28;20085;-86
2022/04/09 01:17:15;;;;;;;1.17;1.00;;;;;;;;;;4948599;29;20055;-84
2022/04/09 01:19:41;;;;;;;2.15;1.05;;;;;;;;;;4948701;29;20042;-87
2022/04/09 01:22:06;;;;;;;2.42;1.30;;;;;;;;;;4950129;29;20494;-83
2022/04/09 01:24:32;;;;;;;2.58;1.05;;;;;;;;;;4940656;29;20032;-84
2022/04/09 01:26:58;;;;;;;1.70;1.05;;;;;;;;;;4949009;29;20032;-86
2022/04/09 01:29:23;;;;;;;2.88;1.40;;;;;;;;;;4953460;29;20031;-85
2022/04/09 01:31:49;;;;;;;6.07;1.40;;;;;;;;;;4950930;29;20039;-88
2022/04/09 01:34:14;;;;;;;1.52;0.88;;;;;;;;;;4948663;29;20039;-84
2022/04/09 01:36:40;;;;;;;1.75;1.17;;;;;;;;;;4948630;29;20104;-88
2022/04/09 01:39:05;;;;;;;1.27;0.82;;;;;;;;;;4952788;29;20027;-86
2022/04/09 01:41:31;;;;;;;1.88;1.00;;;;;;;;;;4944722;29;20050;-87
2022/04/09 01:43:56;;;;;;;1.42;0.70;;;;;;;;;;4943250;29;20023;-88
2022/04/09 01:46:21;;;;;;;2.53;0.90;;;;;;;;;;4953254;29;20053;-86
2022/04/09 01:48:48;;;;;;;3.53;0.73;;;;;;;;;;4951166;29;20050;-85
2022/04/09 01:51:13;;;;;;;1.55;0.88;;;;;;;;;;4948220;29;20107;-87
2022/04/09 01:53:39;;;;;;;2.95;1.00;;;;;;;;;;4953095;29;20118;-86
2022/04/09 01:56:04;;;;;;;1.60;0.80;;;;;;;;;;4951600;29;20059;-87
2022/04/09 01:58:30;;;;;;;1.90;0.93;;;;;;;;;;4951316;29;20035;-86
2022/04/09 02:00:59;;;;;;;1.52;0.90;;;;;;;;;;4953735;29;20030;-84
2022/04/09 02:03:25;;;;;;;2.22;0.60;;;;;;;;;;4967490;28;20507;-87
2022/04/09 02:05:51;;;;;;;2.00;0.85;;;;;;;;;;4949334;29;20023;-85
2022/04/09 02:08:16;;;;;;;2.25;1.00;;;;;;;;;;4954249;29;20127;-88
2022/04/09 02:10:42;;;;;;;1.85;0.93;;;;;;;;;;4953192;29;20031;-87
2022/04/09 02:13:14;;;;;;;1.88;1.10;;;;;;;;;;4954095;29;20031;-87
2022/04/09 02:15:40;;;;;;;2.97;1.15;;;;;;;;;;4965510;28;20042;-87
2022/04/09 02:18:06;;;;;;;3.15;1.00;;;;;;;;;;4948868;29;20027;-89
2022/04/09 02:20:36;;;;;;;5.80;1.15;;;;;;;;;;4951911;29;20035;-86
2022/04/09 02:23:02;;;;;;;2.13;1.00;;;;;;;;;;4952889;29;20158;-89
2022/04/09 02:25:27;;;;;;;3.25;1.10;;;;;;;;;;4951749;28;20106;-86
2022/04/09 02:27:53;;;;;;;1.45;0.70;;;;;;;;;;4948419;29;20027;-90
2022/04/09 02:30:18;;;;;;;1.70;0.63;;;;;;;;;;4949758;29;20019;-86
2022/04/09 02:32:46;;;;;;;1.08;0.88;;;;;;;;;;4939491;28;20118;-86
2022/04/09 02:35:12;;;;;;;1.90;0.70;;;;;;;;;;4954582;28;20420;-83
2022/04/09 02:37:38;;;;;;;3.85;1.02;;;;;;;;;;4945717;28;20106;-87
2022/04/09 02:40:04;;;;;;;2.25;0.75;;;;;;;;;;4953292;29;20059;-87
2022/04/09 02:42:30;;;;;;;1.67;0.75;;;;;;;;;;4941701;29;20030;-88
2022/04/09 02:44:55;;;;;;;2.30;0.88;;;;;;;;;;4948027;29;20031;-90
2022/04/09 02:47:21;;;;;;;1.52;0.70;;;;;;;;;;4944646;28;20452;-87
2022/04/09 02:49:47;;;;;;;1.42;0.73;;;;;;;;;;4956375;28;20389;-87
2022/04/09 02:52:12;;;;;;;1.10;0.70;;;;;;;;;;4945423;29;20027;-88
2022/04/09 02:54:38;;;;;;;0.75;0.65;;;;;;;;;;4950723;29;20039;-86
2022/04/09 02:57:03;;;;;;;2.50;0.90;;;;;;;;;;4944861;29;20027;-86
2022/04/09 02:59:29;;;;;;;0.75;0.65;;;;;;;;;;4952639;28;20086;-84
2022/04/09 03:01:54;;;;;;;1.65;1.08;;;;;;;;;;4947970;29;20042;-87
2022/04/09 03:04:20;;;;;;;2.72;0.93;;;;;;;;;;4942222;28;20484;-88
2022/04/09 03:06:45;;;;;;;3.45;1.10;;;;;;;;;;4951799;28;20051;-86
2022/04/09 03:09:11;;;;;;;1.50;0.90;;;;;;;;;;4946182;28;20033;-86
2022/04/09 03:11:37;;;;;;;2.05;1.05;;;;;;;;;;4946998;29;20028;-86
2022/04/09 03:14:03;;;;;;;4.60;1.25;;;;;;;;;;4947700;29;20055;-83
2022/04/09 03:16:29;;;;;;;6.07;1.55;;;;;;;;;;4954168;28;20120;-87
2022/04/09 03:18:55;;;;;;;1.73;1.02;;;;;;;;;;4963117;28;20027;-88
2022/04/09 03:21:20;;;;;;;4.45;1.27;;;;;;;;;;4950277;28;20449;-86
2022/04/09 03:23:46;;;;;;;2.17;1.02;;;;;;;;;;4950596;28;20090;-85
2022/04/09 03:26:11;;;;;;;3.03;1.23;;;;;;;;;;4947180;29;20054;-88
2022/04/09 03:28:37;;;;;;;4.75;2.15;;;;;;;;;;4944141;29;20031;-86
2022/04/09 03:31:03;;;;;;;4.85;1.80;;;;;;;;;;4945095;29;20026;-87
2022/04/09 03:33:28;;;;;;;4.00;2.10;;;;;;;;;;4952979;28;20069;-86
2022/04/09 03:35:54;;;;;;;4.18;1.90;;;;;;;;;;4947794;28;20466;-87
2022/04/09 03:38:20;;;;;;;3.67;2.35;;;;;;;;;;4947460;29;20546;-87
2022/04/09 03:40:46;;;;;;;3.42;1.80;;;;;;;;;;4947356;29;20130;-86
2022/04/09 03:43:12;;;;;;;4.95;1.60;;;;;;;;;;4957076;28;20035;-85
2022/04/09 03:45:37;;;;;;;4.07;1.67;;;;;;;;;;4945414;29;20028;-84
2022/04/09 03:48:03;;;;;;;2.47;1.50;;;;;;;;;;4948939;29;20042;-86
2022/04/09 03:50:29;;;;;;;3.90;1.80;;;;;;;;;;4949667;29;20035;-86
2022/04/09 03:52:54;;;;;;;2.90;1.42;;;;;;;;;;4945569;28;20178;-86
2022/04/09 03:55:20;;;;;;;2.95;1.67;;;;;;;;;;4949838;28;20054;-84
2022/04/09 03:57:46;;;;;;;2.25;1.48;;;;;;;;;;4941832;29;20074;-86
2022/04/09 04:00:14;;;;;;;2.80;1.52;;;;;;;;;;4950686;29;20085;-85
2022/04/09 04:02:40;;;;;;;3.72;1.58;;;;;;;;;;4948384;29;20469;-86
2022/04/09 04:05:07;;;;;;;3.47;1.30;;;;;;;;;;4947231;29;20031;-82
2022/04/09 04:07:33;;;;;;;2.33;1.65;;;;;;;;;;4944744;29;20530;-87
2022/04/09 04:10:09;;;;;;;1.90;1.38;;;;;;;;;;4942343;29;20030;-86
2022/04/09 04:12:34;;;;;;;3.25;1.83;;;;;;;;;;4948604;29;20105;-86
2022/04/09 04:15:00;;;;;;;3.05;1.42;;;;;;;;;;4946791;29;20424;-86
2022/04/09 04:17:25;;;;;;;4.45;1.63;;;;;;;;;;4944100;28;20023;-85
2022/04/09 04:19:51;;;;;;;3.33;1.65;;;;;;;;;;4947760;29;20045;-88
2022/04/09 04:22:17;;;;;;;2.80;1.55;;;;;;;;;;4944431;29;20027;-85
2022/04/09 04:24:42;;;;;;;2.88;1.48;;;;;;;;;;4950944;29;20029;-85
2022/04/09 04:27:07;;;;;;;2.83;1.40;;;;;;;;;;4946245;29;20032;-86
2022/04/09 04:29:34;;;;;;;2.40;1.45;;;;;;;;;;4942365;29;20033;-84
2022/04/09 04:32:00;;;;;;;5.00;2.17;;;;;;;;;;4947969;29;20480;-86
2022/04/09 04:34:26;;;;;;;2.20;1.40;;;;;;;;;;4945330;29;20472;-85
2022/04/09 04:36:51;;;;;;;1.92;1.33;;;;;;;;;;4943149;29;20032;-88
2022/04/09 04:39:16;;;;;;;2.10;1.20;;;;;;;;;;4944780;29;20114;-89
2022/04/09 04:41:42;;;;;;;2.58;1.40;;;;;;;;;;4944908;29;20051;-87
2022/04/09 04:44:09;;;;;;;3.42;2.03;;;;;;;;;;4949165;29;20023;-88
2022/04/09 04:46:36;;;;;;;2.42;1.70;;;;;;;;;;4946177;29;20459;-89
2022/04/09 04:49:02;;;;;;;2.72;1.42;;;;;;;;;;4944841;28;20030;-90
2022/04/09 04:51:27;;;;;;;2.17;1.27;;;;;;;;;;4954213;28;20039;-82
2022/04/09 04:53:54;;;;;;;2.58;1.63;;;;;;;;;;4961530;28;20036;-87
2022/04/09 04:56:22;;;;;;;3.92;1.80;;;;;;;;;;4952399;29;20027;-85
2022/04/09 04:58:47;;;;;;;4.03;1.70;;;;;;;;;;4952002;29;20475;-85
2022/04/09 05:01:13;;;;;;;3.28;1.95;;;;;;;;;;4947479;29;20114;-89
2022/04/09 05:03:39;;;;;;;2.28;1.35;;;;;;;;;;4941933;29;20477;-88
2022/04/09 05:06:05;;;;;;;2.85;1.40;;;;;;;;;;4952359;29;20520;-87
2022/04/09 05:08:30;;;;;;;3.83;2.72;;;;;;;;;;4944467;29;20040;-87
2022/04/09 05:10:56;;;;;;;2.30;1.45;;;;;;;;;;4946963;29;20110;-87
2022/04/09 05:13:21;;;;;;;4.22;1.50;;;;;;;;;;4952349;28;20067;-87
2022/04/09 05:15:47;;;;;;;1.90;1.40;;;;;;;;;;4945303;28;20116;-88
2022/04/09 05:18:12;;;;;;;2.88;1.50;;;;;;;;;;4954765;29;20484;-87
2022/04/09 05:20:38;;;;;;;2.92;1.52;;;;;;;;;;4952302;29;20023;-86
2022/04/09 05:23:03;;;;;;;2.40;1.70;;;;;;;;;;4948031;28;20389;-88
2022/04/09 05:25:31;;;;;;;3.00;1.80;;;;;;;;;;4960867;28;20040;-90
2022/04/09 05:28:04;;;;;;;3.60;1.60;;;;;;;;;;4952959;29;20487;-89
2022/04/09 05:30:34;;;;;;;2.97;1.58;;;;;;;;;;4952989;29;20043;-89
2022/04/09 05:33:00;;;;;;;3.05;1.77;;;;;;;;;;4944851;28;21371;-89
2022/04/09 05:35:25;;;;;;;3.30;1.70;;;;;;;;;;4965449;28;20035;-86
2022/04/09 05:37:51;;;;;;;2.97;1.40;;;;;;;;;;4952331;29;20054;-87
2022/04/09 05:40:18;;;;;;;3.17;1.30;;;;;;;;;;4948978;29;20040;-89
2022/04/09 05:42:43;;;;;;;2.85;1.20;;;;;;;;;;4948373;29;20020;-86
2022/04/09 05:45:10;;;;;;;2.78;1.20;;;;;;;;;;4962804;28;20098;-88
2022/04/09 05:47:43;;;;;;;5.18;1.75;;;;;;;;;;4951873;28;20047;-86
2022/04/09 05:50:10;;;;;;;3.53;1.48;;;;;;;;;;4951155;29;20027;-87
2022/04/09 05:52:35;;;;;;;3.97;1.50;;;;;;;;;;4946860;29;20023;-86
2022/04/09 05:55:03;;;;;;;2.85;1.52;;;;;;;;;;4951597;29;20388;-89
2022/04/09 05:57:32;;;;;;;2.85;1.13;;;;;;;;;;4951317;29;20025;-86
2022/04/09 05:59:58;;;;;;;4.13;1.65;;;;;;;;;;4946409;28;20026;-88
2022/04/09 06:02:24;;;;;;;2.10;1.35;;;;;;;;;;4952245;29;20054;-89
2022/04/09 06:04:49;;;;;;;4.95;2.00;;;;;;;;;;4949545;29;20031;-88
2022/04/09 06:07:15;;;;;;;2.10;1.60;;;;;;;;;;4951050;29;20059;-87
2022/04/09 06:09:41;;;;;;;4.22;1.30;;;;;;;;;;4951865;28;20114;-86
2022/04/09 06:12:08;;;;;;;2.97;1.20;;;;;;;;;;4953622;29;20054;-86
2022/04/09 06:14:34;;;;;;;3.97;1.45;;;;;;;;;;4948004;29;20452;-85
2022/04/09 06:17:00;;;;;;;5.18;2.22;;;;;;;;;;4946708;29;20034;-86
2022/04/09 06:19:27;;;;;;;2.20;1.45;;;;;;;;;;4952881;29;20031;-87
2022/04/09 06:21:53;;;;;;;3.97;1.38;;;;;;;;;;4949942;28;20028;-87
2022/04/09 06:24:18;;;;;;;7.10;5.40;;;;;;;;;;4950930;29;20034;-87
2022/04/09 06:26:44;;;;;;;4.07;1.98;;;;;;;;;;4951650;28;20031;-87
2022/04/09 06:29:09;;;;;;;2.60;1.52;;;;;;;;;;4947367;29;20055;-89
2022/04/09 06:31:35;;;;;;;3.10;1.52;;;;;;;;;;4950213;29;20527;-85
2022/04/09 06:34:00;;;;;;;4.25;1.50;;;;;;;;;;4942083;29;20050;-89
2022/04/09 06:36:26;;;;;;;3.28;1.55;;;;;;;;;;4945127;29;20031;-89
2022/04/09 06:38:53;;;;;;;4.50;1.60;;;;;;;;;;4944360;29;20475;-90
2022/04/09 06:41:18;;;;;;;1.92;1.70;;;;;;;;;;4944420;29;20422;-88
2022/04/09 06:43:45;;;;;;;3.97;2.10;;;;;;;;;;4945457;29;20115;-87
2022/04/09 06:46:11;;;;;;;3.58;2.03;;;;;;;;;;4944754;28;20366;-87
2022/04/09 06:48:37;;;;;;;3.95;2.00;;;;;;;;;;4946286;29;20038;-87
2022/04/09 06:51:03;;;;;;;5.13;2.05;;;;;;;;;;4958631;28;20046;-86
2022/04/09 06:53:29;;;;;;;6.07;2.17;;;;;;;;;;4946718;29;20465;-88
2022/04/09 06:55:55;;;;;;;5.68;3.22;;;;;;;;;;4946208;29;20042;-87
2022/04/09 06:58:20;;;;;;;7.47;3.15;;;;;;;;;;4960254;28;20366;-88
2022/04/09 07:00:46;;;;;;;5.75;3.42;;;;;;;;;;4950158;28;20110;-90
2022/04/09 07:03:12;;;;;;;5.97;3.67;;;;;;;;;;4950039;29;20050;-88
2022/04/09 07:05:38;;;;;;;8.65;3.72;;;;;;;;;;4945981;29;20063;-86
2022/04/09 07:08:07;;;;;;;10.35;3.65;;;;;;;;;;4943655;29;20609;-87
2022/04/09 07:10:34;;;;;;;6.05;3.20;;;;;;;;;;4953808;28;20034;-87
2022/04/09 07:12:59;;;;;;;6.75;3.42;;;;;;;;;;4942903;29;20040;-89
2022/04/09 07:15:24;;;;;;;12.07;7.53;;;;;;;;;;4947132;29;20115;-86
2022/04/09 07:17:50;;;;;;;5.00;3.30;;;;;;;;;;4940472;29;20087;-87
2022/04/09 07:20:16;;;;;;;5.93;3.47;;;;;;;;;;4956230;28;20043;-84
2022/04/09 07:22:41;;;;;;;5.80;3.47;;;;;;;;;;4949343;29;20031;-86
2022/04/09 07:25:08;;;;;;;6.38;3.35;;;;;;;;;;4943240;28;20031;-87
2022/04/09 07:27:37;;;;;;;6.90;3.70;;;;;;;;;;4946272;28;20525;-87
2022/04/09 07:30:14;;;;;;;9.40;3.72;;;;;;;;;;4945823;29;20102;-86
2022/04/09 07:32:40;;;;;;;5.57;3.80;;;;;;;;;;4949567;28;20123;-88
2022/04/09 07:35:07;;;;;;;6.45;4.00;;;;;;;;;;4949577;29;20388;-86
2022/04/09 07:37:32;;;;;;;9.77;4.05;;;;;;;;;;4946419;29;20027;-86
2022/04/09 07:39:58;;;;;;;8.32;4.30;;;;;;;;;;4948529;28;20495;-87
2022/04/09 07:42:24;;;;;;;8.80;3.95;;;;;;;;;;4949451;29;20035;-87
2022/04/09 07:44:50;;;;;;;6.75;3.65;;;;;;;;;;4943864;29;20045;-85
2022/04/09 07:47:15;;;;;;;5.72;3.45;;;;;;;;;;4947862;28;20395;-84
2022/04/09 07:49:44;;;;;;;5.75;3.25;;;;;;;;;;4939813;28;20035;-85
2022/04/09 07:52:11;;;;;;;5.22;2.90;;;;;;;;;;4942205;29;20027;-85
2022/04/09 07:54:37;;;;;;;5.43;2.75;;;;;;;;;;4942626;28;20507;-88
2022/04/09 07:57:03;;;;;;;5.55;2.88;;;;;;;;;;4947238;29;20019;-86
2022/04/09 07:59:28;;;;;;;5.47;2.92;;;;;;;;;;4948200;29;20027;-87
2022/04/09 08:01:54;;;;;;;6.32;3.50;;;;;;;;;;4941907;29;20031;-87
2022/04/09 08:04:19;;;;;;;7.75;3.42;;;;;;;;;;4944405;29;20098;-86
2022/04/09 08:06:45;;;;;;;5.90;2.30;;;;;;;;;;4945632;29;20051;-86
2022/04/09 08:09:10;;;;;;;4.32;2.35;;;;;;;;;;4952088;29;20027;-86
2022/04/09 08:11:36;;;;;;;6.97;2.47;;;;;;;;;;4946245;29;20028;-85
2022/04/09 08:14:01;;;;;;;4.45;2.20;;;;;;;;;;4949994;29;20039;-85
2022/04/09 08:16:27;;;;;;;5.30;2.40;;;;;;;;;;4946571;29;20086;-84
2022/04/09 08:18:52;;;;;;;5.45;2.10;;;;;;;;;;4945981;29;20078;-88
2022/04/09 08:21:18;;;;;;;4.38;1.95;;;;;;;;;;4948713;28;20048;-86
2022/04/09 08:23:44;;;;;;;5.20;2.30;;;;;;;;;;4949974;28;20050;-86
2022/04/09 08:26:09;;;;;;;5.82;1.90;;;;;;;;;;4950565;29;20038;-86
2022/04/09 08:28:36;;;;;;;4.63;1.92;;;;;;;;;;4948395;29;20031;-87
2022/04/09 08:31:02;;;;;;;5.35;2.25;;;;;;;;;;4949891;29;20062;-84
2022/04/09 08:33:27;;;;;;;5.88;1.90;;;;;;;;;;4946530;29;20035;-86
2022/04/09 08:35:53;;;;;;;3.83;2.10;;;;;;;;;;4949131;29;20538;-86
2022/04/09 08:38:19;;;;;;;10.15;2.70;;;;;;;;;;4946974;29;20035;-86
2022/04/09 08:40:46;;;;;;;6.13;1.70;;;;;;;;;;4964631;28;20053;-85
2022/04/09 08:43:11;;;;;;;3.17;1.67;;;;;;;;;;4946297;28;20495;-85
2022/04/09 08:45:41;;;;;;;3.22;1.63;;;;;;;;;;4951661;29;20031;-83
2022/04/09 08:48:07;;;;;;;;;;;;;;;;;;4955712;29;20027;-83
2022/04/09 08:50:35;;;;;;;6.40;1.95;;;;;;;;;;4963816;28;19921;-84
2022/04/09 08:53:06;;;;;;;4.43;1.70;;;;;;;;;;4949330;29;20034;-85
2022/04/09 08:55:36;;;;;;;3.55;1.60;;;;;;;;;;4950526;28;20018;-86
2022/04/09 08:58:01;;;;;;;2.85;1.55;;;;;;;;;;4945957;28;20380;-85
2022/04/09 09:00:27;;;;;;;4.10;1.90;;;;;;;;;;4948110;29;20036;-85
2022/04/09 09:02:56;;;;;;;5.15;1.70;;;;;;;;;;4949770;29;20034;-84
2022/04/09 09:05:37;;;;;;;6.18;1.95;;;;;;;;;;4947793;29;20029;-86
2022/04/09 09:08:03;;;;;;;3.20;1.20;;;;;;;;;;4949507;29;20381;-84
2022/04/09 09:10:30;;;;;;;2.83;1.52;;;;;;;;;;4949889;28;20038;-85
2022/04/09 09:13:07;;;;;;;4.03;1.75;;;;;;;;;;4948418;29;20028;-86
2022/04/09 09:15:45;;;;;;;5.78;1.70;;;;;;;;;;4949626;29;20480;-85
2022/04/09 09:18:18;;;;;;;3.45;1.67;;;;;;;;;;4948128;29;20028;-83
2022/04/09 09:21:00;;;;;;;2.60;1.80;;;;;;;;;;4950379;29;20035;-84
2022/04/09 09:23:33;;;;;;;4.80;1.70;;;;;;;;;;4948696;29;20031;-86
2022/04/09 09:26:00;;;;;;;3.15;1.50;;;;;;;;;;4949245;29;20071;-85
2022/04/09 09:28:32;;;;;;;4.45;1.80;;;;;;;;;;4947914;28;20063;-85
2022/04/09 09:30:59;;;;;;;4.40;1.55;;;;;;;;;;4946449;29;20078;-84
2022/04/09 09:33:25;;;;;;;6.60;1.75;;;;;;;;;;4945849;29;20488;-86
2022/04/09 09:35:56;;;;;;;2.85;1.80;;;;;;;;;;4946518;29;20031;-84
2022/04/09 09:38:24;;;;;;;5.78;1.75;;;;;;;;;;4948277;28;20028;-86
2022/04/09 09:40:50;;;;;;;3.13;1.40;;;;;;;;;;4952542;28;20031;-84
2022/04/09 09:43:17;;;;;;;2.72;1.20;;;;;;;;;;4952215;28;20022;-86
2022/04/09 09:45:44;;;;;;;5.20;1.05;;;;;;;;;;4945731;29;20028;-85
2022/04/09 09:48:39;;;;;;;1.67;0.90;;;;;;;;;;4951726;29;20042;-85
2022/04/09 09:51:04;;;;;;;4.55;1.30;;;;;;;;;;4949595;28;20043;-84
2022/04/09 09:53:32;;;;;;;3.13;1.00;;;;;;;;;;4949473;29;20373;-86
2022/04/09 09:55:59;;;;;;;2.38;1.17;;;;;;;;;;4949994;29;20019;-87
2022/04/09 09:58:29;;;;;;;2.40;1.23;;;;;;;;;;4953373;28;20063;-89
2022/04/09 10:00:56;;;;;;;3.75;0.90;;;;;;;;;;4946616;28;20030;-86
2022/04/09 10:03:23;;;;;;;2.03;1.00;;;;;;;;;;4957336;28;20099;-87
2022/04/09 10:05:50;;;;;;;2.17;1.20;;;;;;;;;;4948618;29;20042;-88
2022/04/09 10:08:17;;;;;;;2.00;1.10;;;;;;;;;;4953374;29;20102;-87
2022/04/09 10:10:48;;;;;;;1.80;0.93;;;;;;;;;;4950285;29;20041;-87
2022/04/09 10:13:18;;;;;;;3.08;1.00;;;;;;;;;;4956732;29;20114;-85
2022/04/09 10:15:47;;;;;;;3.83;1.33;;;;;;;;;;4950060;28;20055;-87
2022/04/09 10:18:13;;;;;;;2.08;0.85;;;;;;;;;;4946627;28;20028;-85
2022/04/09 10:20:39;;;;;;;3.10;1.15;;;;;;;;;;4950047;28;20031;-84
2022/04/09 10:23:09;;;;;;;3.97;1.15;;;;;;;;;;4956417;28;20464;-85
2022/04/09 10:25:39;;;;;;;4.82;1.20;;;;;;;;;;4949774;29;20067;-85
2022/04/09 10:28:06;;;;;;;2.42;1.23;;;;;;;;;;4950607;29;20027;-85
2022/04/09 10:30:53;;;;;;;1.80;1.10;;;;;;;;;;4950874;29;20538;-84
2022/04/09 10:33:22;;;;;;;3.25;1.30;;;;;;;;;;4959547;28;20046;-81
2022/04/09 10:35:48;;;;;;;3.60;1.10;;;;;;;;;;4945022;28;20059;-85
2022/04/09 10:38:22;;;;;;;3.40;1.63;;;;;;;;;;4945704;29;20032;-87
2022/04/09 10:40:52;;;;;;;5.57;1.10;;;;;;;;;;4943654;28;20027;-87
2022/04/09 10:43:28;;;;;;;2.35;1.00;;;;;;;;;;4948324;29;20106;-85
2022/04/09 10:46:17;;;;;;;2.53;0.98;;;;;;;;;;4950893;28;20038;-84
2022/04/09 10:48:44;;;;;;;2.10;0.90;;;;;;;;;;4950095;28;20043;-87
2022/04/09 10:51:11;;;;;;;3.03;1.20;;;;;;;;;;4949954;29;20460;-87
2022/04/09 10:53:39;;;;;;;2.45;0.80;;;;;;;;;;4945515;28;20182;-85
2022/04/09 10:56:15;;;;;;;1.98;0.90;;;;;;;;;;4951329;28;20368;-84
2022/04/09 10:59:16;;;;;;;1.23;0.75;;;;;;;;;;4949575;29;20468;-84
2022/04/09 11:04:28;;;;;;;3.85;1.00;;;;;;;;;;4946029;29;20122;-84
2022/04/09 11:07:18;;;;;;;3.55;1.20;;;;;;;;;;4947260;28;20047;-85
2022/04/09 11:09:50;;;;;;;2.65;1.00;;;;;;;;;;4946755;29;20102;-84
2022/04/09 11:12:21;;;;;;;2.97;1.00;;;;;;;;;;4956398;28;20032;-84
2022/04/09 11:14:49;;;;;;;2.20;0.85;;;;;;;;;;4967347;28;20431;-83
2022/04/09 11:17:18;;;;;;;3.67;1.35;;;;;;;;;;4947594;29;20118;-87
2022/04/09 11:19:46;;;;;;;1.10;0.80;;;;;;;;;;4943371;28;20031;-87
2022/04/09 11:22:11;;;;;;;2.30;0.85;;;;;;;;;;4948436;28;20031;-86
2022/04/09 11:24:37;;;;;;;4.75;1.40;;;;;;;;;;4951892;29;20027;-85
2022/04/09 11:27:03;;;;;;;4.55;0.90;;;;;;;;;;4952685;28;20495;-85
2022/04/09 11:29:35;;;;;;;2.90;1.10;;;;;;;;;;4950685;28;20027;-85
2022/04/09 11:32:02;;;;;;;2.55;1.13;;;;;;;;;;4951548;28;20038;-88
2022/04/09 11:34:28;;;;;;;2.88;0.80;;;;;;;;;;4951049;29;20034;-84
2022/04/09 11:37:10;;;;;;;1.30;0.80;;;;;;;;;;4947062;29;20031;-85
2022/04/09 11:39:43;;;;;;;2.08;0.88;;;;;;;;;;4945017;28;20042;-84
2022/04/09 11:42:09;;;;;;;1.38;0.80;;;;;;;;;;4945812;29;20050;-85
2022/04/09 11:44:35;;;;;;;2.42;0.90;;;;;;;;;;4950062;29;20062;-89
2022/04/09 11:47:11;;;;;;;2.42;0.85;;;;;;;;;;4947441;28;20027;-84
2022/04/09 11:49:37;;;;;;;1.50;0.75;;;;;;;;;;4945630;29;20032;-85
2022/04/09 11:52:04;;;;;;;3.17;1.10;;;;;;;;;;4946964;29;20502;-85
2022/04/09 11:54:31;;;;;;;2.42;1.10;;;;;;;;;;4946838;29;20038;-84
2022/04/09 11:56:56;;;;;;;1.75;0.80;;;;;;;;;;4942849;28;20110;-84
2022/04/09 11:59:22;;;;;;;2.65;0.80;;;;;;;;;;4946157;29;20460;-85
2022/04/09 12:01:48;;;;;;;2.17;1.20;;;;;;;;;;4948910;29;20095;-83
2022/04/09 12:04:14;;;;;;;2.08;1.00;;;;;;;;;;4955198;28;20023;-84
2022/04/09 12:06:41;;;;;;;2.58;1.30;;;;;;;;;;4943624;29;20377;-85
2022/04/09 12:09:06;;;;;;;4.78;2.55;;;;;;;;;;4944182;28;20436;-84
2022/04/09 12:11:32;;;;;;;1.48;0.88;;;;;;;;;;4941021;29;20055;-84
2022/04/09 12:14:13;;;;;;;2.33;0.95;;;;;;;;;;4945451;29;20460;-84
2022/04/09 12:16:39;;;;;;;1.08;0.60;;;;;;;;;;4947260;28;20035;-84
2022/04/09 12:19:06;;;;;;;3.20;1.27;;;;;;;;;;4944562;29;20039;-87
2022/04/09 12:21:34;;;;;;;3.38;0.80;;;;;;;;;;4945858;29;20390;-84
2022/04/09 12:24:02;;;;;;;3.65;1.02;;;;;;;;;;4948384;28;20031;-84
2022/04/09 12:26:27;;;;;;;2.38;0.70;;;;;;;;;;4948695;28;20387;-84
2022/04/09 12:29:26;;;;;;;3.88;0.85;;;;;;;;;;4947398;29;20035;-85
2022/04/09 12:32:12;;;;;;;4.33;1.00;;;;;;;;;;4945531;29;20136;-84
2022/04/09 12:34:58;;;;;;;4.82;1.98;;;;;;;;;;4946870;29;20499;-85
2022/04/09 12:37:24;;;;;;;1.60;0.73;;;;;;;;;;4948184;28;20027;-84
2022/04/09 12:40:10;;;;;;;5.00;1.25;;;;;;;;;;4949178;28;20046;-83
2022/04/09 12:42:35;;;;;;;1.45;0.75;;;;;;;;;;4940590;29;20468;-85
2022/04/09 12:45:12;;;;;;;2.20;1.00;;;;;;;;;;4950624;29;20059;-87
2022/04/09 12:47:37;;;;;;;3.40;1.23;;;;;;;;;;4945496;29;20031;-84
2022/04/09 12:50:04;;;;;;;3.00;1.00;;;;;;;;;;4947266;29;20440;-85
2022/04/09 12:52:30;;;;;;;1.77;0.93;;;;;;;;;;4947295;28;20039;-86
2022/04/09 12:54:56;;;;;;;1.08;0.73;;;;;;;;;;4949314;29;20480;-86
2022/04/09 12:57:22;;;;;;;3.35;1.23;;;;;;;;;;4942240;29;20107;-85
2022/04/09 12:59:47;;;;;;;1.23;0.77;;;;;;;;;;4947072;29;20491;-86
2022/04/09 13:02:13;;;;;;;3.60;0.85;;;;;;;;;;4947571;29;20035;-85
2022/04/09 13:04:39;;;;;;;2.90;0.93;;;;;;;;;;4948163;29;20212;-83
2022/04/09 13:07:04;;;;;;;2.63;1.10;;;;;;;;;;4949605;28;20120;-85
2022/04/09 13:09:30;;;;;;;2.72;1.15;;;;;;;;;;4950984;28;20439;-82
2022/04/09 13:11:56;;;;;;;3.13;0.80;;;;;;;;;;4952550;29;20106;-84
2022/04/09 13:14:21;;;;;;;1.23;0.70;;;;;;;;;;4953036;29;20058;-88
2022/04/09 13:16:48;;;;;;;3.10;1.25;;;;;;;;;;4954782;28;20034;-85
2022/04/09 13:19:13;;;;;;;4.85;1.27;;;;;;;;;;4955193;28;20066;-83
2022/04/09 13:21:40;;;;;;;1.90;0.95;;;;;;;;;;4956015;29;20031;-83
2022/04/09 13:24:06;;;;;;;1.98;0.77;;;;;;;;;;4953601;28;20454;-84
2022/04/09 13:26:32;;;;;;;1.63;0.75;;;;;;;;;;4955691;28;20033;-84
2022/04/09 13:28:58;;;;;;;2.97;0.80;;;;;;;;;;4969248;28;20030;-83
2022/04/09 13:31:28;;;;;;;3.05;0.88;;;;;;;;;;4951230;29;20043;-83
2022/04/09 13:33:54;;;;;;;1.85;0.70;;;;;;;;;;4949547;28;20094;-83
2022/04/09 13:36:20;;;;;;;1.52;0.80;;;;;;;;;;4948539;29;20705;-86
2022/04/09 13:38:45;;;;;;;2.25;0.80;;;;;;;;;;4951032;28;20053;-84
2022/04/09 13:41:16;;;;;;;1.80;0.93;;;;;;;;;;4953315;29;20501;-87
2022/04/09 13:43:47;;;;;;;2.83;0.90;;;;;;;;;;4951717;28;20028;-86
2022/04/09 13:46:13;;;;;;;3.05;1.08;;;;;;;;;;4950757;29;20164;-87
2022/04/09 13:48:38;;;;;;;3.60;1.00;;;;;;;;;;4946596;29;20102;-84
2022/04/09 13:51:03;;;;;;;2.85;0.80;;;;;;;;;;4949567;29;20030;-88
2022/04/09 13:53:29;;;;;;;3.38;1.10;;;;;;;;;;4959174;28;20612;-86
2022/04/09 13:55:54;;;;;;;3.70;0.90;;;;;;;;;;4944302;28;20096;-85
2022/04/09 13:58:20;;;;;;;1.40;0.73;;;;;;;;;;4949015;29;20036;-88
2022/04/09 14:00:49;;;;;;;2.45;0.80;;;;;;;;;;4951875;29;20388;-88
2022/04/09 14:03:14;;;;;;;3.73;0.70;;;;;;;;;;4950042;29;20055;-87
2022/04/09 14:05:41;;;;;;;2.53;0.85;;;;;;;;;;4960285;28;20054;-88
2022/04/09 14:08:18;;;;;;;1.73;0.60;;;;;;;;;;4941137;29;20103;-87
2022/04/09 14:10:47;;;;;;;1.35;0.70;;;;;;;;;;4948049;28;20035;-84
2022/04/09 14:13:12;;;;;;;3.70;1.52;;;;;;;;;;4946348;29;20057;-84
2022/04/09 14:15:38;;;;;;;2.13;1.00;;;;;;;;;;4950237;29;20082;-87
2022/04/09 14:18:06;;;;;;;2.15;1.20;;;;;;;;;;4951275;29;20054;-88
2022/04/09 14:20:32;;;;;;;2.08;0.80;;;;;;;;;;4945169;29;20078;-87
2022/04/09 14:22:57;;;;;;;2.45;0.93;;;;;;;;;;4968681;28;20039;-85
2022/04/09 14:25:23;;;;;;;4.07;0.98;;;;;;;;;;4950685;29;20055;-85
2022/04/09 14:27:48;;;;;;;3.05;0.93;;;;;;;;;;4962544;28;20036;-86
2022/04/09 14:30:14;;;;;;;1.17;0.70;;;;;;;;;;4941180;29;20042;-85
2022/04/09 14:32:43;;;;;;;2.95;1.23;;;;;;;;;;4945695;28;20461;-86
2022/04/09 14:35:09;;;;;;;1.30;1.00;;;;;;;;;;4952339;29;20395;-87
2022/04/09 14:37:35;;;;;;;2.00;0.85;;;;;;;;;;4950007;29;20456;-89
2022/04/09 14:40:00;;;;;;;2.38;0.93;;;;;;;;;;4947433;28;20035;-85
2022/04/09 14:42:26;;;;;;;3.28;1.00;;;;;;;;;;4948165;29;20464;-86
2022/04/09 14:44:57;;;;;;;3.35;1.10;;;;;;;;;;4947052;29;20028;-89
2022/04/09 14:47:22;;;;;;;2.20;0.63;;;;;;;;;;4948442;29;20028;-88